Time;durP1;ratioP1;P1;durP2;ratioP2;P2;SDS_P1;SDS_P2;PMS_P1;PMS_P2;Temp;Humidity;BMP_temperature;BMP_pressure;BME280_temperature;BME280_humidity;BME280_pressure;Samples;Min_cycle;Max_cycle;Signal;HPM_P1;HPM_P2
2022/06/12 00:00:39;;;;;;;8.03;4.50;;;;;;;20.80;100.00;101247.13;2066388;28;20175;-67
2022/06/12 00:01:40;;;;;;;8.10;4.50;;;;;;;20.83;100.00;101248.19;2066440;28;20175;-67
2022/06/12 00:02:42;;;;;;;9.43;4.43;;;;;;;20.14;100.00;101161.53;2066473;28;20182;-66
2022/06/12 00:03:43;;;;;;;9.70;4.07;;;;;;;20.66;100.00;101242.28;2066406;28;20644;-67
2022/06/12 00:04:44;;;;;;;6.60;4.37;;;;;;;20.59;100.00;101241.88;2066349;28;20834;-67
2022/06/12 00:05:47;;;;;;;5.57;4.40;;;;;;;20.55;100.00;101247.72;2066322;28;20236;-67
2022/06/12 00:06:48;;;;;;;6.03;4.43;;;;;;;20.55;100.00;101249.75;2066589;28;20197;-67
2022/06/12 00:07:49;;;;;;;5.63;4.27;;;;;;;20.47;100.00;101240.91;2066384;28;20425;-67
2022/06/12 00:08:49;;;;;;;5.97;4.30;;;;;;;20.32;100.00;101226.06;2057612;28;20426;-67
2022/06/12 00:09:50;;;;;;;9.43;4.47;;;;;;;20.47;100.00;101237.34;2057689;28;20203;-67
2022/06/12 00:10:53;;;;;;;5.47;4.57;;;;;;;20.50;100.00;101241.97;2066286;28;20174;-66
2022/06/12 00:11:54;;;;;;;5.03;4.50;;;;;;;20.12;100.00;101203.44;2066457;28;20679;-66
2022/06/12 00:12:56;;;;;;;5.73;4.80;;;;;;;20.43;100.00;101248.00;2066272;28;20859;-66
2022/06/12 00:14:00;;;;;;;8.83;4.83;;;;;;;20.37;100.00;101242.25;2066349;28;20177;-66
2022/06/12 00:15:00;;;;;;;8.10;4.80;;;;;;;20.39;100.00;101242.56;2066369;28;20901;-66
2022/06/12 00:16:03;;;;;;;5.87;4.67;;;;;;;20.39;100.00;101241.78;2066325;28;20468;-66
2022/06/12 00:17:03;;;;;;;5.67;4.93;;;;;;;20.00;100.00;101186.81;2066320;28;20170;-66
2022/06/12 00:18:05;;;;;;;6.40;4.80;;;;;;;20.34;100.00;101237.63;2066322;28;20406;-67
2022/06/12 00:19:06;;;;;;;7.27;4.77;;;;;;;20.37;100.00;101239.44;2066409;28;20170;-66
2022/06/12 00:20:06;;;;;;;10.53;5.60;;;;;;;20.30;100.00;101244.69;2066280;28;20419;-67
2022/06/12 00:21:11;;;;;;;9.93;6.07;;;;;;;20.10;100.00;101231.28;2066435;28;20178;-66
2022/06/12 00:22:12;;;;;;;6.37;5.60;;;;;;;20.15;100.00;101241.88;2057517;28;20192;-67
2022/06/12 00:23:15;;;;;;;8.43;6.33;;;;;;;20.15;100.00;101247.50;2057675;28;20513;-66
2022/06/12 00:24:18;;;;;;;10.97;6.07;;;;;;;20.07;100.00;101242.72;2066194;28;20178;-67
2022/06/12 00:25:20;;;;;;;10.67;4.90;;;;;;;20.12;100.00;101250.50;2066372;28;20508;-67
2022/06/12 00:26:30;;;;;;;6.87;5.60;;;;;;;19.39;100.00;101129.38;2066270;28;20544;-66
2022/06/12 00:27:30;;;;;;;5.40;4.90;;;;;;;20.15;100.00;101243.91;2066201;28;20406;-66
2022/06/12 00:28:31;;;;;;;6.40;4.47;;;;;;;20.21;100.00;101237.13;2066160;28;20417;-67
2022/06/12 00:29:33;;;;;;;8.13;5.03;;;;;;;20.24;100.00;101236.16;2066311;28;20199;-66
2022/06/12 00:30:34;;;;;;;7.20;5.07;;;;;;;20.24;100.00;101235.38;2066255;28;20178;-67
2022/06/12 00:31:37;;;;;;;12.13;4.77;;;;;;;20.25;100.00;101251.78;2066213;28;20453;-66
2022/06/12 00:32:38;;;;;;;11.87;4.83;;;;;;;20.27;100.00;101237.22;2066118;28;20202;-67
2022/06/12 00:33:39;;;;;;;10.40;4.60;;;;;;;19.61;100.00;101138.28;2066276;28;20421;-66
2022/06/12 00:34:46;;;;;;;9.17;4.43;;;;;;;20.28;100.00;101244.41;2066113;28;20422;-67
2022/06/12 00:35:47;;;;;;;13.03;5.03;;;;;;;20.33;100.00;101238.88;2066324;28;20165;-67
2022/06/12 00:36:48;;;;;;;7.97;4.53;;;;;;;20.35;100.00;101238.38;2066142;28;20429;-66
2022/06/12 00:37:48;;;;;;;11.47;4.67;;;;;;;20.35;100.00;101238.38;2066132;28;20180;-67
2022/06/12 00:38:49;;;;;;;7.73;4.53;;;;;;;20.26;100.00;101225.19;2066103;28;20178;-67
2022/06/12 00:39:52;;;;;;;10.43;4.80;;;;;;;20.33;100.00;101238.88;2066248;28;20167;-66
2022/06/12 00:40:52;;;;;;;9.77;4.80;;;;;;;20.27;100.00;101223.16;2066236;28;20171;-67
2022/06/12 00:41:55;;;;;;;10.40;4.93;;;;;;;20.38;100.00;101235.41;2066171;28;20505;-66
2022/06/12 00:43:01;;;;;;;9.60;5.00;;;;;;;19.81;100.00;101152.44;2066283;28;20632;-67
2022/06/12 00:44:03;;;;;;;9.63;5.93;;;;;;;20.36;100.00;101235.09;2066058;28;20767;-66
2022/06/12 00:45:32;;;;;;;10.33;5.37;;;;;;;20.35;100.00;101232.75;2066071;28;20460;-67
2022/06/12 00:46:35;;;;;;;9.30;5.07;;;;;;;20.36;100.00;101232.28;2066044;28;20463;-67
2022/06/12 00:47:36;;;;;;;12.30;4.97;;;;;;;20.34;100.00;101225.56;2066269;28;20428;-66
2022/06/12 00:48:38;;;;;;;10.77;5.40;;;;;;;20.35;100.00;101227.91;2066292;28;20406;-67
2022/06/12 00:49:47;;;;;;;10.93;4.67;;;;;;;20.36;100.00;101226.66;2066093;28;20253;-67
2022/06/12 00:50:58;;;;;;;11.10;4.83;;;;;;;20.22;100.00;101202.06;2073499;28;20428;-66
2022/06/12 00:52:49;;;;;;;12.33;4.80;;;;;;;19.96;100.00;101160.91;2072143;28;20399;-66
2022/06/12 00:53:54;;;;;;;11.37;4.47;;;;;;;20.37;100.00;101213.34;2045743;28;20491;-67
2022/06/12 00:55:01;;;;;;;7.23;6.60;;;;;;;20.22;100.00;101195.69;2066018;28;20405;-66
2022/06/12 00:56:13;;;;;;;12.10;5.10;;;;;;;20.30;100.00;101208.09;2066044;28;20401;-67
2022/06/12 00:57:16;;;;;;;9.03;5.00;;;;;;;20.38;100.00;101218.50;2065976;28;20923;-67
2022/06/12 00:58:19;;;;;;;15.07;5.10;;;;;;;20.37;100.00;101211.31;2065943;28;20919;-67
2022/06/12 00:59:34;;;;;;;9.53;4.97;;;;;;;20.40;100.00;101209.56;2065406;28;20448;-66
2022/06/12 01:00:37;;;;;;;9.67;6.93;;;;;;;19.85;100.00;101132.59;2065961;28;20451;-67
2022/06/12 01:01:44;;;;;;;8.13;6.17;;;;;;;19.58;100.00;101079.41;2065976;28;20440;-67
2022/06/12 01:02:45;;;;;;;8.10;5.27;;;;;;;19.85;100.00;101121.34;2066109;28;20409;-66
2022/06/12 01:06:33;;;;;;;9.10;6.00;;;;;;;20.45;100.00;101222.94;2065759;28;20484;-67
2022/06/12 01:07:50;;;;;;;12.70;6.23;;;;;;;20.41;100.00;101222.41;2065943;28;20452;-67
2022/06/12 01:08:50;;;;;;;10.73;6.60;;;;;;;20.40;100.00;101227.22;2066054;28;20400;-67
2022/06/12 01:09:55;;;;;;;11.03;7.00;;;;;;;20.43;100.00;101223.47;2065856;28;20451;-67
2022/06/12 01:11:00;;;;;;;9.43;6.10;;;;;;;20.28;100.00;101205.00;2066098;28;20183;-67
2022/06/12 01:12:03;;;;;;;8.23;6.27;;;;;;;20.46;100.00;101228.09;2066143;28;20402;-67
2022/06/12 01:13:10;;;;;;;8.73;6.03;;;;;;;20.47;100.00;101220.44;2065847;28;20416;-66
2022/06/12 01:14:14;;;;;;;9.27;6.20;;;;;;;20.49;100.00;101215.88;2065998;28;20416;-67
2022/06/12 01:15:22;;;;;;;9.33;5.60;;;;;;;20.59;100.00;101219.34;2065854;28;20424;-67
2022/06/12 01:16:22;;;;;;;9.47;6.27;;;;;;;20.59;100.00;101216.53;2065956;28;20858;-67
2022/06/12 01:17:26;;;;;;;9.40;6.03;;;;;;;20.50;100.00;101200.53;2065793;28;20460;-67
2022/06/12 01:18:32;;;;;;;11.53;6.90;;;;;;;20.61;100.00;101214.78;2066007;28;20178;-67
2022/06/12 01:19:56;;;;;;;12.13;6.20;;;;;;;20.60;100.00;101192.75;2065910;28;20839;-66
2022/06/12 01:21:34;;;;;;;12.27;5.77;;;;;;;20.61;100.00;101202.75;2065956;28;20757;-67
2022/06/12 01:22:57;;;;;;;9.40;5.80;;;;;;;20.59;100.00;101196.84;2065792;28;20390;-67
2022/06/12 01:24:35;;;;;;;11.17;6.53;;;;;;;20.66;100.00;101193.59;2065897;28;20784;-66
2022/06/12 01:25:50;;;;;;;8.07;7.20;;;;;;;20.55;100.00;101199.84;2065912;28;20786;-67
2022/06/12 01:27:00;;;;;;;8.87;7.07;;;;;;;20.52;100.00;101206.44;2065729;28;20787;-67
2022/06/12 01:28:23;;;;;;;10.80;7.53;;;;;;;20.49;100.00;101201.81;2065651;28;20448;-67
2022/06/12 01:29:33;;;;;;;10.57;7.27;;;;;;;20.50;100.00;101203.34;2065870;28;20806;-67
2022/06/12 01:30:56;;;;;;;9.17;7.33;;;;;;;20.53;100.00;101202.34;2065716;28;20497;-67
2022/06/12 01:31:59;;;;;;;10.27;7.57;;;;;;;20.52;100.00;101202.88;2065789;28;20480;-67
2022/06/12 01:33:12;;;;;;;9.30;7.07;;;;;;;20.53;100.00;101204.41;2065891;28;20483;-67
2022/06/12 01:34:44;;;;;;;11.63;7.73;;;;;;;20.52;100.00;101200.81;2065951;28;20916;-67
2022/06/12 01:36:06;;;;;;;8.30;6.60;;;;;;;20.26;100.00;101160.44;2065658;28;20400;-67
2022/06/12 01:37:24;;;;;;;10.17;7.33;;;;;;;20.58;100.00;101198.84;2065720;28;20398;-67
2022/06/12 01:38:45;;;;;;;10.60;6.30;;;;;;;20.61;100.00;101192.25;2065819;28;20411;-67
2022/06/12 01:40:15;;;;;;;14.47;6.40;;;;;;;20.59;100.00;101199.66;2065645;28;20405;-67
2022/06/12 01:41:31;;;;;;;14.83;6.57;;;;;;;20.57;100.00;101202.94;2065724;28;20412;-67
2022/06/12 01:42:46;;;;;;;12.60;7.60;;;;;;;20.55;100.00;101199.84;2065710;28;20419;-67
2022/06/12 01:44:05;;;;;;;8.80;7.53;;;;;;;20.54;100.00;101208.78;2065641;28;20914;-67
2022/06/12 01:45:23;;;;;;;12.57;6.47;;;;;;;20.44;100.00;101208.13;2065734;28;20401;-67
2022/06/12 01:46:41;;;;;;;13.67;6.63;;;;;;;20.39;100.00;101199.56;2065657;28;20460;-66
2022/06/12 01:48:11;;;;;;;8.60;5.80;;;;;;;20.39;100.00;101191.91;2065628;28;20412;-67
2022/06/12 01:49:28;;;;;;;9.23;6.10;;;;;;;20.46;100.00;101199.19;2065601;28;20413;-66
2022/06/12 01:50:47;;;;;;;9.27;5.73;;;;;;;20.44;100.00;101201.69;2065624;28;20401;-67
2022/06/12 01:51:51;;;;;;;11.07;6.23;;;;;;;20.46;100.00;101204.81;2065606;28;20401;-67
2022/06/12 01:53:01;;;;;;;12.27;6.20;;;;;;;20.43;100.00;101203.75;2056818;28;20410;-67
2022/06/12 01:54:32;;;;;;;9.80;6.10;;;;;;;20.40;100.00;101210.34;2058313;28;20405;-67
2022/06/12 01:56:08;;;;;;;14.00;7.80;;;;;;;20.34;100.00;101211.50;2052899;28;20425;-67
2022/06/12 01:57:44;;;;;;;9.97;8.20;;;;;;;20.29;100.00;101218.59;2049055;28;20436;-67
2022/06/12 01:59:21;;;;;;;9.87;6.97;;;;;;;20.25;100.00;101218.00;2032876;29;20872;-66
2022/06/12 02:00:24;;;;;;;11.03;7.07;;;;;;;20.27;100.00;101217.53;2032922;29;20484;-67
2022/06/12 02:01:57;;;;;;;16.23;7.67;;;;;;;20.21;100.00;101220.22;2056740;28;20956;-67
2022/06/12 02:03:24;;;;;;;8.07;7.20;;;;;;;20.25;100.00;101215.19;2061668;28;20520;-67
2022/06/12 02:04:43;;;;;;;10.17;7.33;;;;;;;19.95;100.00;101165.75;2065698;28;20417;-67
2022/06/12 02:06:10;;;;;;;14.60;7.00;;;;;;;20.30;100.00;101205.28;2065473;28;20410;-67
2022/06/12 02:07:41;;;;;;;9.93;6.90;;;;;;;20.32;100.00;101209.16;2065536;28;20463;-66
2022/06/12 02:08:55;;;;;;;14.50;6.73;;;;;;;20.11;100.00;101185.00;2065420;28;20496;-67
2022/06/12 02:10:07;;;;;;;12.37;7.77;;;;;;;20.32;100.00;101206.34;2065442;28;20497;-67
2022/06/12 02:14:15;;;;;;;15.23;7.43;;;;;;;20.36;100.00;101209.00;2065622;28;20393;-66
2022/06/12 02:15:25;;;;;;;11.03;7.80;;;;;;;20.36;100.00;101209.75;2065395;28;20426;-66
2022/06/12 02:16:33;;;;;;;9.27;7.77;;;;;;;20.40;100.00;101209.56;2065471;28;20967;-67
2022/06/12 02:17:40;;;;;;;13.00;7.20;;;;;;;20.33;100.00;101198.69;2065518;28;20414;-67
2022/06/12 02:18:54;;;;;;;12.93;7.33;;;;;;;19.86;100.00;101134.13;2065389;28;20454;-67
2022/06/12 02:19:54;;;;;;;11.13;6.17;;;;;;;20.37;100.00;101219.00;2063494;28;20437;-67
2022/06/12 02:21:22;;;;;;;11.73;6.13;;;;;;;20.07;100.00;101156.28;2065377;28;20456;-66
2022/06/12 02:22:27;;;;;;;14.53;6.50;;;;;;;20.37;100.00;101208.50;2065558;28;20217;-67
2022/06/12 02:23:36;;;;;;;13.27;6.70;;;;;;;20.36;100.00;101223.06;2065409;28;20421;-67
2022/06/12 02:24:42;;;;;;;11.20;6.63;;;;;;;20.32;100.00;101214.78;2065398;28;20416;-67
2022/06/12 02:25:46;;;;;;;13.80;5.70;;;;;;;19.79;100.00;101134.50;2065505;28;20437;-67
2022/06/12 02:27:00;;;;;;;12.40;5.93;;;;;;;20.35;100.00;101208.22;2065386;28;20469;-66
2022/06/12 02:28:08;;;;;;;9.60;6.30;;;;;;;19.87;100.00;101152.56;2065561;28;20463;-67
2022/06/12 02:29:37;;;;;;;14.30;6.43;;;;;;;20.08;100.00;101196.44;2065316;28;20433;-66
2022/06/12 02:30:42;;;;;;;16.13;6.57;;;;;;;19.80;100.00;101145.28;2065262;28;20895;-66
2022/06/12 02:31:46;;;;;;;11.43;6.90;;;;;;;20.19;100.00;101208.69;2065298;28;20426;-67
2022/06/12 02:33:01;;;;;;;11.27;7.17;;;;;;;20.17;100.00;101210.44;2065250;28;20429;-67
2022/06/12 02:34:06;;;;;;;10.37;7.60;;;;;;;20.16;100.00;101211.69;2065438;28;20409;-67
2022/06/12 02:35:12;;;;;;;12.33;6.90;;;;;;;19.64;100.00;101120.44;2065574;28;20493;-67
2022/06/12 02:36:18;;;;;;;14.37;6.57;;;;;;;20.05;100.00;101186.91;2065336;28;20426;-67
2022/06/12 02:37:28;;;;;;;14.70;7.50;;;;;;;20.01;100.00;101171.50;2065428;28;20425;-67
2022/06/12 02:38:39;;;;;;;15.03;6.90;;;;;;;20.11;100.00;101181.44;2065537;28;20409;-66
2022/06/12 02:39:48;;;;;;;14.40;6.83;;;;;;;20.28;100.00;101208.59;2065421;28;20781;-67
2022/06/12 02:40:52;;;;;;;10.80;6.53;;;;;;;20.13;100.00;101207.81;2065267;28;20850;-66
2022/06/12 02:42:01;;;;;;;13.50;6.57;;;;;;;19.00;100.00;101017.47;2065405;28;20433;-67
2022/06/12 02:43:08;;;;;;;16.67;6.10;;;;;;;20.24;100.00;101210.03;2065470;28;20471;-67
2022/06/12 02:44:14;;;;;;;10.90;7.07;;;;;;;20.24;100.00;101212.84;2065225;28;20409;-67
2022/06/12 02:45:39;;;;;;;12.73;5.87;;;;;;;20.15;100.00;101205.28;2065209;28;20413;-67
2022/06/12 02:46:44;;;;;;;9.17;6.03;;;;;;;20.23;100.00;101214.91;2065234;28;20819;-67
2022/06/12 02:47:47;;;;;;;13.13;7.57;;;;;;;20.24;100.00;101208.03;2065222;28;20422;-67
2022/06/12 02:48:48;;;;;;;9.23;7.33;;;;;;;20.28;100.00;101207.81;2065234;28;20862;-66
2022/06/12 02:49:50;;;;;;;12.13;7.40;;;;;;;20.25;100.00;101218.00;2065209;28;20436;-67
2022/06/12 02:51:19;;;;;;;15.90;7.57;;;;;;;20.30;100.00;101208.88;2065234;28;20185;-67
2022/06/12 02:52:40;;;;;;;18.37;7.40;;;;;;;19.95;100.00;101148.88;2048374;29;20438;-67
2022/06/12 02:54:06;;;;;;;15.37;7.47;;;;;;;19.84;100.00;101148.66;2056519;28;20456;-67
2022/06/12 02:55:11;;;;;;;15.40;8.20;;;;;;;20.36;100.00;101214.63;2060392;28;20394;-67
2022/06/12 02:56:33;;;;;;;8.27;7.30;;;;;;;19.84;100.00;101133.81;2065216;28;20422;-67
2022/06/12 02:57:46;;;;;;;12.10;7.73;;;;;;;20.31;100.00;101204.03;2056570;28;20482;-66
2022/06/12 02:59:25;;;;;;;15.60;7.10;;;;;;;20.33;100.00;101210.75;2058372;28;20786;-67
2022/06/12 03:01:10;;;;;;;10.50;6.50;;;;;;;20.27;100.00;101218.28;2048299;29;20862;-67
2022/06/12 03:02:29;;;;;;;9.40;6.27;;;;;;;20.26;100.00;101225.19;2056492;28;20441;-67
2022/06/12 03:03:32;;;;;;;9.03;6.67;;;;;;;20.28;100.00;101222.69;2065217;28;20405;-67
2022/06/12 03:04:42;;;;;;;11.07;7.40;;;;;;;20.29;100.00;101209.38;2065135;28;20421;-67
2022/06/12 03:05:49;;;;;;;9.50;7.37;;;;;;;20.25;100.00;101218.00;2065215;28;20428;-67
2022/06/12 03:06:51;;;;;;;8.20;7.30;;;;;;;20.26;100.00;101213.16;2065163;28;20418;-67
2022/06/12 03:08:00;;;;;;;11.73;7.90;;;;;;;20.27;100.00;101221.09;2065123;28;20444;-67
2022/06/12 03:09:02;;;;;;;9.70;7.83;;;;;;;19.90;100.00;101162.84;2065180;28;20401;-67
2022/06/12 03:10:07;;;;;;;10.93;7.67;;;;;;;19.53;100.00;101100.53;2065098;28;20867;-66
2022/06/12 03:11:16;;;;;;;10.40;6.80;;;;;;;20.34;100.00;101217.91;2065223;28;20406;-67
2022/06/12 03:12:17;;;;;;;10.47;7.03;;;;;;;20.22;100.00;101202.06;2065221;28;20412;-66
2022/06/12 03:13:20;;;;;;;11.50;7.43;;;;;;;20.04;100.00;101162.84;2065117;28;20422;-67
2022/06/12 03:14:22;;;;;;;12.63;7.23;;;;;;;20.39;100.00;101222.09;2065198;28;20421;-68
2022/06/12 03:15:33;;;;;;;12.93;7.23;;;;;;;20.37;100.00;101214.13;2065158;28;20418;-67
2022/06/12 03:16:36;;;;;;;8.87;7.00;;;;;;;20.43;100.00;101219.84;2065280;28;20437;-66
2022/06/12 03:17:37;;;;;;;7.97;7.17;;;;;;;20.45;100.00;101222.94;2065146;28;20471;-67
2022/06/12 03:18:41;;;;;;;12.27;7.20;;;;;;;19.95;100.00;101146.06;2065093;28;20452;-67
2022/06/12 03:19:51;;;;;;;10.20;7.07;;;;;;;20.45;100.00;101223.75;2065075;28;20648;-66
2022/06/12 03:21:24;;;;;;;8.43;7.20;;;;;;;20.47;100.00;101226.06;2065308;28;20405;-67
2022/06/12 03:22:27;;;;;;;11.53;7.20;;;;;;;20.50;100.00;101227.91;2055445;28;20433;-66
2022/06/12 03:23:41;;;;;;;8.93;7.30;;;;;;;20.51;100.00;101224.59;2066702;28;20513;-67
2022/06/12 03:24:58;;;;;;;7.90;6.83;;;;;;;20.55;100.00;101221.59;2066746;28;20487;-67
2022/06/12 03:26:01;;;;;;;12.13;7.53;;;;;;;20.57;100.00;101225.47;2066731;28;20500;-67
2022/06/12 03:27:32;;;;;;;10.17;7.07;;;;;;;20.15;100.00;101165.09;2066701;28;20978;-67
2022/06/12 03:28:39;;;;;;;9.53;6.97;;;;;;;20.54;100.00;101228.50;2066698;28;20440;-67
2022/06/12 03:29:56;;;;;;;8.57;6.93;;;;;;;20.50;100.00;101227.91;2066610;28;20433;-67
2022/06/12 03:31:15;;;;;;;8.97;7.30;;;;;;;20.53;100.00;101221.31;2066793;28;20918;-67
2022/06/12 03:32:41;;;;;;;10.43;7.27;;;;;;;20.50;100.00;101220.25;2066755;28;20420;-66
2022/06/12 03:34:06;;;;;;;9.00;7.00;;;;;;;20.52;100.00;101223.34;2066782;28;20476;-67
2022/06/12 03:35:32;;;;;;;13.03;7.97;;;;;;;20.23;100.00;101172.69;2066795;28;20894;-67
2022/06/12 03:36:40;;;;;;;12.43;7.43;;;;;;;20.54;100.00;101223.66;2066591;28;20409;-67
2022/06/12 03:38:07;;;;;;;13.20;7.87;;;;;;;20.60;100.00;101226.53;2066639;28;20417;-67
2022/06/12 03:39:27;;;;;;;12.83;7.47;;;;;;;20.65;100.00;101223.03;2066600;28;20475;-67
2022/06/12 03:40:42;;;;;;;16.07;7.70;;;;;;;20.65;100.00;101225.84;2066746;28;20803;-67
2022/06/12 03:42:06;;;;;;;12.03;7.37;;;;;;;20.02;100.00;101131.63;2066528;28;20512;-67
2022/06/12 03:43:21;;;;;;;11.90;7.53;;;;;;;20.71;100.00;101223.91;2066616;28;20437;-66
2022/06/12 03:44:34;;;;;;;11.73;7.77;;;;;;;20.67;100.00;101228.97;2066748;28;20401;-67
2022/06/12 03:46:16;;;;;;;11.17;7.67;;;;;;;20.66;100.00;101228.19;2066666;28;20488;-67
2022/06/12 03:47:21;;;;;;;11.43;7.87;;;;;;;20.69;100.00;101227.22;2062587;28;20436;-67
2022/06/12 03:48:31;;;;;;;12.13;7.90;;;;;;;20.67;100.00;101226.91;2066545;28;20467;-67
2022/06/12 03:49:43;;;;;;;12.37;7.57;;;;;;;20.71;100.00;101230.31;2066516;28;20962;-67
2022/06/12 03:50:54;;;;;;;13.93;8.00;;;;;;;20.77;100.00;101219.16;2066534;28;20464;-67
2022/06/12 03:52:22;;;;;;;10.43;8.13;;;;;;;20.82;100.00;101218.47;2066744;28;20400;-66
2022/06/12 03:53:35;;;;;;;9.73;7.40;;;;;;;20.84;100.00;101227.19;2066563;28;20409;-67
2022/06/12 03:55:03;;;;;;;10.93;7.73;;;;;;;20.90;100.00;101228.88;2066495;28;20409;-67
2022/06/12 03:57:52;;;;;;;14.10;7.60;;;;;;;20.85;100.00;101223.91;2066636;28;20429;-67
2022/06/12 03:58:57;;;;;;;13.37;8.23;;;;;;;20.91;100.00;101230.41;2066519;28;20404;-66
2022/06/12 04:00:16;;;;;;;10.17;7.80;;;;;;;20.91;100.00;101219.16;2066329;28;20420;-67
2022/06/12 04:01:17;;;;;;;9.53;7.67;;;;;;;20.92;100.00;101243.25;2066459;28;20497;-67
2022/06/12 04:02:23;;;;;;;9.60;8.03;;;;;;;20.32;100.00;101127.53;2066397;28;20883;-66
2022/06/12 04:03:29;;;;;;;12.77;7.10;;;;;;;20.98;100.00;101220.78;2066432;28;20464;-66
2022/06/12 04:04:33;;;;;;;11.47;7.80;;;;;;;21.00;100.00;101226.72;2066451;28;20929;-67
2022/06/12 04:05:38;;;;;;;9.37;8.20;;;;;;;20.24;100.00;101103.88;2066386;28;20460;-67
2022/06/12 04:06:40;;;;;;;9.47;7.40;;;;;;;21.06;100.00;101224.75;2066179;28;20483;-66
2022/06/12 04:07:46;;;;;;;11.17;8.57;;;;;;;21.07;100.00;101221.44;2057631;28;20434;-66
2022/06/12 04:08:53;;;;;;;13.53;7.87;;;;;;;21.09;100.00;101218.88;2058535;28;20695;-67
2022/06/12 04:09:57;;;;;;;11.03;7.67;;;;;;;20.38;100.00;101113.56;2066567;28;20489;-67
2022/06/12 04:10:58;;;;;;;13.00;7.73;;;;;;;21.11;100.00;101219.19;2066475;28;20404;-67
2022/06/12 04:12:04;;;;;;;12.03;8.13;;;;;;;21.11;100.00;101224.03;2066280;28;20406;-67
2022/06/12 04:13:11;;;;;;;9.63;7.83;;;;;;;21.11;100.00;101224.03;2066514;28;20492;-67
2022/06/12 04:14:15;;;;;;;13.17;8.33;;;;;;;21.13;100.00;101222.28;2066464;28;20488;-67
2022/06/12 04:15:39;;;;;;;12.53;7.50;;;;;;;21.15;100.00;101224.63;2066298;28;20413;-67
2022/06/12 04:16:46;;;;;;;14.23;7.57;;;;;;;21.16;100.00;101223.34;2066345;28;20405;-67
2022/06/12 04:17:47;;;;;;;13.27;8.47;;;;;;;21.16;100.00;101229.78;2066299;28;20935;-67
2022/06/12 04:18:48;;;;;;;10.27;7.80;;;;;;;21.17;100.00;101227.72;2066408;28;20844;-66
2022/06/12 04:20:04;;;;;;;12.47;7.87;;;;;;;21.26;100.00;101228.38;2066258;28;20244;-66
2022/06/12 04:21:13;;;;;;;8.47;6.90;;;;;;;21.32;100.00;101228.44;2066253;28;20405;-67
2022/06/12 04:22:15;;;;;;;9.17;7.73;;;;;;;21.39;100.00;101228.81;2066458;28;20847;-66
2022/06/12 04:23:18;;;;;;;14.73;7.83;;;;;;;21.45;100.00;101224.00;2066190;28;20426;-67
2022/06/12 04:24:42;;;;;;;11.90;8.30;;;;;;;21.54;100.00;101228.75;2065535;28;20433;-67
2022/06/12 04:25:53;;;;;;;10.93;8.03;;;;;;;21.59;100.00;101234.47;2065892;28;20926;-66
2022/06/12 04:27:16;;;;;;;8.40;7.53;;;;;;;21.71;100.00;101235.41;2066418;28;20410;-66
2022/06/12 04:28:36;;;;;;;9.97;8.10;;;;;;;20.86;100.00;101111.97;2066289;28;20447;-67
2022/06/12 04:29:47;;;;;;;11.20;8.13;;;;;;;21.71;100.00;101224.13;2066243;28;20166;-67
2022/06/12 04:30:48;;;;;;;9.80;7.87;;;;;;;21.74;100.00;101228.78;2066225;28;20811;-67
2022/06/12 04:31:53;;;;;;;10.73;8.20;;;;;;;21.82;100.00;101229.91;2066194;28;20442;-67
2022/06/12 04:33:32;;;;;;;10.33;7.73;;;;;;;21.84;100.00;101230.94;2057511;28;20736;-66
2022/06/12 04:34:39;;;;;;;10.30;8.10;;;;;;;21.94;100.00;101234.38;2045416;28;20437;-67
2022/06/12 04:35:47;;;;;;;10.40;7.27;;;;;;;21.98;100.00;101238.56;2058427;28;20250;-67
2022/06/12 04:36:54;;;;;;;9.77;7.47;;;;;;;21.89;100.00;101218.16;2066188;28;20773;-67
2022/06/12 04:37:55;;;;;;;8.67;7.30;;;;;;;22.11;100.00;101233.28;2066193;28;20221;-67
2022/06/12 04:38:56;;;;;;;9.07;7.23;;;;;;;22.16;100.00;101235.41;2066175;28;20178;-67
2022/06/12 04:40:00;;;;;;;9.97;7.27;;;;;;;22.26;100.00;101233.22;2065494;28;20181;-67
2022/06/12 04:41:02;;;;;;;8.63;7.63;;;;;;;21.85;100.00;101155.56;2065628;28;20178;-67
2022/06/12 04:42:04;;;;;;;9.77;7.57;;;;;;;22.43;100.00;101229.28;2066148;28;20166;-67
2022/06/12 04:43:05;;;;;;;9.33;7.30;;;;;;;22.51;100.00;101227.56;2066312;28;20257;-67
2022/06/12 04:44:07;;;;;;;9.13;7.33;;;;;;;22.58;100.00;101229.16;2066090;28;20176;-67
2022/06/12 04:45:08;;;;;;;8.17;7.23;;;;;;;22.08;100.00;101158.09;2066179;28;20328;-67
2022/06/12 04:46:10;;;;;;;8.53;7.23;;;;;;;22.67;100.00;101229.75;2066007;28;20178;-67
2022/06/12 04:47:17;;;;;;;9.03;7.10;;;;;;;22.85;100.00;101232.22;2066019;28;20190;-67
2022/06/12 04:48:26;;;;;;;10.30;7.50;;;;;;;22.95;100.00;101232.81;2066046;28;20178;-66
2022/06/12 04:49:30;;;;;;;11.40;7.20;;;;;;;23.03;100.00;101229.00;2066060;28;20171;-67
2022/06/12 04:50:31;;;;;;;8.97;6.90;;;;;;;23.11;100.00;101224.44;2066194;28;20206;-67
2022/06/12 04:51:32;;;;;;;8.07;6.93;;;;;;;23.11;100.00;101220.81;2066169;28;20691;-67
2022/06/12 04:52:33;;;;;;;8.07;7.03;;;;;;;23.13;100.00;101218.28;2057309;28;20253;-67
2022/06/12 04:53:34;;;;;;;8.23;7.10;;;;;;;23.15;100.00;101232.69;2057452;28;20477;-67
2022/06/12 04:54:37;;;;;;;7.50;6.80;;;;;;;23.23;100.00;101225.31;2066057;28;20178;-66
2022/06/12 04:55:37;;;;;;;9.50;7.57;;;;;;;23.19;100.00;101211.41;2066000;28;20483;-66
2022/06/12 04:56:38;;;;;;;8.27;7.23;;;;;;;23.15;100.00;101202.38;2065998;28;20413;-67
2022/06/12 04:57:39;;;;;;;9.40;7.60;;;;;;;23.37;100.00;101227.97;2066004;28;20644;-67
2022/06/12 04:58:40;;;;;;;7.40;6.70;;;;;;;23.42;100.00;101226.44;2065979;28;20205;-66
2022/06/12 04:59:41;;;;;;;14.23;7.20;;;;;;;23.42;100.00;101229.25;2065939;28;20182;-67
2022/06/12 05:00:41;;;;;;;10.77;7.57;;;;;;;23.41;100.00;101217.19;2065902;28;20186;-67
2022/06/12 05:01:42;;;;;;;9.10;7.27;;;;;;;23.48;100.00;101224.41;2065983;28;20186;-67
2022/06/12 05:02:43;;;;;;;7.77;7.07;;;;;;;23.54;100.00;101225.97;2065991;28;20182;-66
2022/06/12 05:03:43;;;;;;;10.57;7.40;;;;;;;23.27;100.00;101174.94;2066024;28;20217;-67
2022/06/12 05:04:44;;;;;;;8.53;7.67;;;;;;;23.59;100.00;101228.06;2065936;28;20186;-67
2022/06/12 05:05:45;;;;;;;9.53;7.67;;;;;;;23.61;100.00;101227.56;2065926;28;20186;-66
2022/06/12 05:06:49;;;;;;;8.57;7.70;;;;;;;23.59;100.00;101224.47;2073029;28;20249;-67
2022/06/12 05:07:49;;;;;;;8.03;7.23;;;;;;;23.67;100.00;101231.19;2073076;28;20260;-67
2022/06/12 05:08:50;;;;;;;10.43;7.43;;;;;;;23.71;100.00;101229.69;2065852;28;20182;-67
2022/06/12 05:09:50;;;;;;;8.47;7.20;;;;;;;23.75;100.00;101237.91;2065902;28;20557;-67
2022/06/12 05:10:51;;;;;;;8.37;7.67;;;;;;;23.79;100.00;101242.03;2065888;28;20173;-66
2022/06/12 05:11:52;;;;;;;8.73;7.00;;;;;;;23.85;100.00;101236.41;2065876;28;20187;-67
2022/06/12 05:12:53;;;;;;;8.23;7.43;;;;;;;23.89;100.00;101222.81;2065778;28;20175;-67
2022/06/12 05:13:53;;;;;;;8.17;7.47;;;;;;;23.87;100.00;101226.13;2065794;28;20691;-67
2022/06/12 05:14:54;;;;;;;7.90;7.10;;;;;;;23.90;100.00;101232.84;2065889;28;20262;-67
2022/06/12 05:15:55;;;;;;;9.87;7.40;;;;;;;23.95;100.00;101229.28;2065890;28;20194;-66
2022/06/12 05:16:59;;;;;;;9.13;7.67;;;;;;;23.98;100.00;101225.41;2065838;28;20206;-67
2022/06/12 05:17:59;;;;;;;9.87;7.43;;;;;;;24.03;100.00;101233.91;2065951;28;20170;-67
2022/06/12 05:19:00;;;;;;;7.30;6.67;;;;;;;24.01;100.00;101236.47;2065812;28;20265;-66
2022/06/12 05:20:01;;;;;;;10.87;7.53;;;;;;;23.96;100.00;101225.91;2066337;28;20186;-67
2022/06/12 05:21:01;;;;;;;10.17;7.93;;;;;;;23.97;100.00;101221.03;2065742;28;20261;-66
2022/06/12 05:22:03;;;;;;;8.50;7.23;;;;;;;23.28;100.00;101125.59;2066130;28;20183;-66
2022/06/12 05:23:05;;;;;;;11.37;7.77;;;;;;;23.98;100.00;101228.22;2065939;28;20323;-66
2022/06/12 05:24:06;;;;;;;9.47;7.63;;;;;;;24.03;100.00;101239.59;2065723;28;20660;-67